Time;durP1;ratioP1;P1;durP2;ratioP2;P2;SDS_P1;SDS_P2;PMS_P1;PMS_P2;Temp;Humidity;BMP_temperature;BMP_pressure;BME280_temperature;BME280_humidity;BME280_pressure;Samples;Min_cycle;Max_cycle;Signal;HPM_P1;HPM_P2
2023/12/11 00:00:37;;;;;;;8.60;5.80;;;5.90;83.00;;;;;;6247406;28;20239;-83
2023/12/11 00:03:40;;;;;;;9.80;6.37;;;5.90;82.90;;;;;;6251474;28;20772;-80
2023/12/11 00:06:44;;;;;;;13.37;6.90;;;5.80;83.40;;;;;;6236543;28;20659;-77
2023/12/11 00:09:47;;;;;;;12.70;6.50;;;5.80;83.70;;;;;;6244043;28;20233;-81
2023/12/11 00:12:51;;;;;;;14.23;6.63;;;5.80;83.80;;;;;;6258062;28;20320;-84
2023/12/11 00:15:55;;;;;;;11.20;5.97;;;5.90;83.80;;;;;;6236986;28;20528;-82
2023/12/11 00:18:58;;;;;;;13.53;6.07;;;5.90;83.80;;;;;;6244945;28;20234;-83
2023/12/11 00:22:01;;;;;;;13.53;6.27;;;5.80;84.30;;;;;;6240997;28;20243;-83
2023/12/11 00:25:05;;;;;;;11.83;5.90;;;5.70;84.70;;;;;;6228600;28;20760;-82
2023/12/11 00:28:10;;;;;;;12.30;6.03;;;5.70;84.70;;;;;;6254851;28;20233;-84
2023/12/11 00:31:14;;;;;;;9.70;5.27;;;5.80;84.80;;;;;;6250244;28;20612;-82
2023/12/11 00:34:17;;;;;;;16.63;6.47;;;5.90;84.70;;;;;;6256544;28;20878;-84
2023/12/11 00:37:21;;;;;;;14.43;7.53;;;5.80;84.50;;;;;;6257004;28;20230;-82
2023/12/11 00:40:24;;;;;;;11.27;6.10;;;5.80;84.70;;;;;;6264199;28;20291;-82
2023/12/11 00:43:29;;;;;;;14.23;7.77;;;5.80;84.70;;;;;;6244091;28;20624;-81
2023/12/11 00:46:48;;;;;;;15.00;7.37;;;5.90;84.80;;;;;;6239651;28;20242;-82
2023/12/11 00:49:51;;;;;;;15.50;7.43;;;5.80;84.70;;;;;;6248974;28;20868;-85
2023/12/11 00:52:54;;;;;;;16.13;6.80;;;5.90;84.70;;;;;;6249270;28;20238;-83
2023/12/11 00:56:00;;;;;;;15.10;7.07;;;5.90;84.40;;;;;;6249267;28;20250;-85
2023/12/11 00:59:05;;;;;;;13.10;6.50;;;5.90;84.40;;;;;;6240435;28;20734;-83
2023/12/11 01:02:08;;;;;;;12.00;7.03;;;5.90;84.40;;;;;;6255492;28;20241;-84
2023/12/11 01:05:12;;;;;;;7.93;5.80;;;5.90;84.40;;;;;;6257748;28;20234;-82
2023/12/11 01:08:15;;;;;;;17.53;6.17;;;5.90;84.60;;;;;;6263392;28;20724;-79
2023/12/11 01:11:18;;;;;;;14.00;7.00;;;5.90;84.50;;;;;;6246086;28;20638;-82
2023/12/11 01:14:23;;;;;;;16.07;6.70;;;5.90;84.60;;;;;;6253236;28;20311;-83
2023/12/11 01:17:26;;;;;;;13.00;6.37;;;5.80;84.60;;;;;;6244758;28;20246;-85
2023/12/11 01:20:42;;;;;;;8.93;5.37;;;5.80;84.80;;;;;;6259172;28;20227;-82
2023/12/11 01:23:45;;;;;;;10.03;5.83;;;5.80;84.70;;;;;;6240831;28;20321;-85
2023/12/11 01:26:48;;;;;;;13.93;6.50;;;5.80;85.00;;;;;;6255691;28;20320;-83
2023/12/11 01:29:56;;;;;;;13.40;6.70;;;5.70;85.40;;;;;;6256127;28;20234;-85
2023/12/11 01:32:59;;;;;;;14.23;7.03;;;5.70;85.50;;;;;;6256116;28;20667;-83
2023/12/11 01:36:02;;;;;;;11.93;5.83;;;5.70;85.70;;;;;;6248275;28;20238;-85
2023/12/11 01:39:06;;;;;;;9.63;4.90;;;5.70;85.90;;;;;;6246788;28;20420;-83
2023/12/11 01:42:09;;;;;;;11.30;5.60;;;5.80;85.80;;;;;;6260718;28;20269;-79
2023/12/11 01:45:14;;;;;;;6.33;5.20;;;5.80;85.70;;;;;;6235742;28;20250;-81
2023/12/11 01:48:17;;;;;;;8.63;5.70;;;5.80;85.80;;;;;;6241949;28;20238;-79
2023/12/11 01:51:21;;;;;;;11.53;5.67;;;5.70;86.00;;;;;;6247164;28;20237;-84
2023/12/11 01:54:25;;;;;;;9.73;5.57;;;5.70;86.20;;;;;;6248137;28;20379;-83
2023/12/11 01:57:29;;;;;;;7.43;5.33;;;5.80;86.20;;;;;;6258564;28;20905;-84
2023/12/11 02:00:35;;;;;;;9.93;5.20;;;5.80;86.30;;;;;;6246117;28;20235;-83
2023/12/11 02:03:39;;;;;;;10.33;5.70;;;5.70;86.70;;;;;;6254592;28;20311;-82
2023/12/11 02:06:42;;;;;;;9.07;6.20;;;5.70;86.80;;;;;;6262195;28;20237;-81
2023/12/11 02:09:45;;;;;;;6.93;5.13;;;5.80;86.90;;;;;;6257870;28;20241;-83
2023/12/11 02:12:49;;;;;;;8.03;5.60;;;5.80;86.90;;;;;;6248652;28;20272;-84
2023/12/11 02:15:53;;;;;;;7.57;5.20;;;5.80;87.10;;;;;;6247448;28;20237;-84
2023/12/11 02:19:04;;;;;;;7.90;6.20;;;5.80;87.30;;;;;;6238348;28;20317;-84
2023/12/11 02:22:07;;;;;;;11.33;5.90;;;5.80;87.40;;;;;;6259661;28;20339;-81
2023/12/11 02:25:12;;;;;;;12.37;6.03;;;5.90;87.40;;;;;;6252678;28;20242;-79
2023/12/11 02:28:16;;;;;;;9.47;5.83;;;5.90;87.30;;;;;;6252397;28;20241;-81
2023/12/11 02:31:20;;;;;;;12.00;5.77;;;5.90;87.50;;;;;;6245845;28;20638;-83
2023/12/11 02:34:23;;;;;;;5.97;5.30;;;5.90;87.50;;;;;;6250905;28;20269;-84
2023/12/11 02:37:26;;;;;;;12.13;5.97;;;5.90;87.50;;;;;;6242973;28;20238;-79
2023/12/11 02:40:30;;;;;;;8.77;5.30;;;6.00;87.50;;;;;;6260063;28;20234;-80
2023/12/11 02:43:35;;;;;;;9.83;5.50;;;6.00;87.40;;;;;;6244729;28;20245;-84
2023/12/11 02:46:39;;;;;;;14.37;5.90;;;6.00;87.50;;;;;;6242050;28;20242;-82
2023/12/11 02:49:42;;;;;;;14.50;5.57;;;6.00;87.50;;;;;;6261887;28;20234;-81
2023/12/11 02:52:45;;;;;;;9.23;5.07;;;6.10;87.70;;;;;;6253129;28;20756;-80
2023/12/11 02:55:48;;;;;;;10.40;5.20;;;6.10;87.60;;;;;;6248642;28;20233;-81
2023/12/11 02:58:53;;;;;;;6.30;5.03;;;6.30;87.50;;;;;;6242083;28;20262;-84
2023/12/11 03:01:56;;;;;;;11.63;4.67;;;6.40;87.00;;;;;;6246240;28;20238;-81
2023/12/11 03:05:00;;;;;;;6.93;4.83;;;6.50;86.40;;;;;;6241034;28;20725;-81
2023/12/11 03:08:04;;;;;;;10.33;4.90;;;6.60;85.90;;;;;;6236586;28;20749;-82
2023/12/11 03:11:07;;;;;;;11.13;5.07;;;6.70;85.70;;;;;;6252250;28;20604;-83
2023/12/11 03:14:12;;;;;;;10.40;5.17;;;6.80;85.40;;;;;;6246020;28;20455;-80
2023/12/11 03:17:15;;;;;;;7.90;4.90;;;6.80;85.20;;;;;;6250956;28;20659;-81
2023/12/11 03:20:18;;;;;;;13.00;4.57;;;6.90;85.00;;;;;;6239582;28;20243;-83
2023/12/11 03:23:22;;;;;;;7.47;4.70;;;7.00;84.70;;;;;;6244861;28;20235;-81
2023/12/11 03:26:25;;;;;;;6.63;4.47;;;7.00;84.50;;;;;;6248399;28;20907;-83
2023/12/11 03:29:30;;;;;;;10.77;4.43;;;7.00;84.20;;;;;;6259880;28;20279;-82
2023/12/11 03:32:33;;;;;;;8.00;4.67;;;7.00;84.20;;;;;;6239644;28;20830;-83
2023/12/11 03:35:36;;;;;;;9.00;4.90;;;7.00;84.30;;;;;;6243745;28;20238;-82
2023/12/11 03:38:39;;;;;;;5.10;4.57;;;7.00;84.20;;;;;;6238359;28;20245;-83
2023/12/11 03:41:43;;;;;;;9.50;5.00;;;7.20;84.00;;;;;;6221531;28;20855;-84
2023/12/11 03:44:47;;;;;;;8.50;4.67;;;7.20;83.70;;;;;;6230764;28;20408;-82
2023/12/11 03:47:50;;;;;;;10.50;5.33;;;7.20;83.90;;;;;;6217645;28;20242;-81
2023/12/11 03:50:54;;;;;;;6.83;4.57;;;7.20;83.70;;;;;;6219882;28;20254;-82
2023/12/11 03:53:57;;;;;;;8.53;4.40;;;7.30;83.40;;;;;;6225254;28;20234;-82
2023/12/11 03:57:00;;;;;;;9.07;4.60;;;7.50;82.80;;;;;;6234498;28;20334;-81
2023/12/11 04:00:09;;;;;;;5.67;4.00;;;7.50;82.40;;;;;;6235684;28;20874;-81
2023/12/11 04:03:13;;;;;;;8.30;4.43;;;7.50;82.60;;;;;;6228600;28;20346;-84
2023/12/11 04:06:16;;;;;;;13.17;4.87;;;7.50;83.10;;;;;;6218776;28;20257;-82
2023/12/11 04:09:20;;;;;;;8.13;4.43;;;7.50;83.00;;;;;;6224896;28;20238;-82
2023/12/11 04:12:23;;;;;;;4.83;4.27;;;7.50;83.00;;;;;;6226941;28;20889;-84
2023/12/11 04:15:28;;;;;;;6.57;4.87;;;7.60;82.70;;;;;;6217213;28;20243;-80
2023/12/11 04:18:31;;;;;;;5.60;4.40;;;7.60;82.70;;;;;;6229828;28;20741;-82
2023/12/11 04:21:34;;;;;;;9.43;4.60;;;7.70;82.50;;;;;;6215809;28;20241;-82
2023/12/11 04:24:38;;;;;;;5.67;4.60;;;7.70;82.30;;;;;;6227693;28;20250;-83
2023/12/11 04:27:41;;;;;;;7.43;5.53;;;7.60;82.70;;;;;;6228030;28;20249;-81
2023/12/11 04:30:47;;;;;;;9.13;4.40;;;7.60;82.70;;;;;;6229058;28;20270;-83
2023/12/11 04:33:55;;;;;;;10.77;4.80;;;7.70;82.60;;;;;;6226355;28;20326;-79
2023/12/11 04:36:59;;;;;;;10.43;4.80;;;7.60;82.60;;;;;;6225506;28;20263;-81
2023/12/11 04:40:03;;;;;;;12.07;4.97;;;7.60;82.50;;;;;;6234287;28;20784;-83
2023/12/11 04:43:06;;;;;;;6.77;4.60;;;7.70;82.60;;;;;;6228726;28;20317;-82
2023/12/11 04:46:11;;;;;;;10.00;5.30;;;7.80;82.30;;;;;;6227944;28;20659;-83
2023/12/11 04:49:14;;;;;;;9.00;4.63;;;7.80;82.10;;;;;;6223552;28;20245;-82
2023/12/11 04:52:18;;;;;;;14.67;5.40;;;7.80;82.20;;;;;;6215773;28;20670;-81
2023/12/11 04:55:21;;;;;;;8.43;5.10;;;7.80;82.00;;;;;;6223055;28;20241;-82
2023/12/11 04:58:24;;;;;;;11.77;6.20;;;7.80;82.10;;;;;;6221381;28;20269;-81
2023/12/11 05:01:29;;;;;;;9.70;5.07;;;7.80;82.10;;;;;;6223040;28;20326;-82
2023/12/11 05:04:32;;;;;;;11.30;4.87;;;7.80;81.90;;;;;;6228635;28;20251;-82
2023/12/11 05:07:35;;;;;;;7.23;4.83;;;7.80;82.10;;;;;;6228660;28;20249;-82
2023/12/11 05:10:39;;;;;;;8.90;5.20;;;7.80;82.20;;;;;;6216119;28;20350;-81
2023/12/11 05:13:42;;;;;;;13.77;5.63;;;7.80;82.10;;;;;;6218087;28;20326;-82
2023/12/11 05:16:47;;;;;;;14.77;5.03;;;7.80;82.20;;;;;;6217819;28;20419;-83
2023/12/11 05:19:50;;;;;;;6.20;4.57;;;7.80;82.30;;;;;;6231308;28;20253;-83
2023/12/11 05:22:53;;;;;;;10.33;5.20;;;7.80;82.20;;;;;;6228640;28;20316;-82
2023/12/11 05:25:56;;;;;;;7.87;4.73;;;7.70;82.30;;;;;;6219890;28;20251;-82
2023/12/11 05:29:00;;;;;;;9.13;5.00;;;7.80;81.90;;;;;;6216229;28;20265;-81
2023/12/11 05:32:06;;;;;;;10.67;4.87;;;7.80;81.60;;;;;;6217440;28;20238;-85
2023/12/11 05:35:09;;;;;;;10.37;5.40;;;7.70;81.70;;;;;;6234609;28;20239;-83
2023/12/11 05:38:12;;;;;;;10.07;4.93;;;7.70;81.80;;;;;;6228272;28;20373;-82
2023/12/11 05:41:15;;;;;;;12.03;5.00;;;7.70;81.70;;;;;;6229214;28;20255;-83
2023/12/11 05:44:18;;;;;;;11.67;5.67;;;7.70;81.60;;;;;;6214423;28;20270;-82
2023/12/11 05:47:23;;;;;;;8.50;5.20;;;7.80;81.40;;;;;;6224097;28;20390;-82
2023/12/11 05:50:26;;;;;;;5.97;5.20;;;7.60;81.40;;;;;;6221680;28;20258;-83
2023/12/11 05:53:30;;;;;;;7.70;5.27;;;7.60;81.50;;;;;;6224655;28;20750;-82
2023/12/11 05:56:33;;;;;;;9.47;5.03;;;7.60;81.50;;;;;;6224997;28;20810;-82
2023/12/11 05:59:36;;;;;;;9.30;5.00;;;7.70;81.20;;;;;;6233807;28;20223;-84
2023/12/11 06:02:41;;;;;;;11.07;6.43;;;7.70;81.30;;;;;;6214573;28;22428;-82
2023/12/11 06:05:44;;;;;;;9.17;5.10;;;7.70;81.30;;;;;;6218431;28;20227;-82
2023/12/11 06:08:47;;;;;;;13.60;5.23;;;7.60;81.60;;;;;;6225441;28;20254;-80
2023/12/11 06:11:50;;;;;;;9.43;5.30;;;7.60;81.70;;;;;;6221780;28;20243;-82
2023/12/11 06:14:54;;;;;;;6.77;5.20;;;7.70;81.50;;;;;;6218112;28;20795;-81
2023/12/11 06:17:58;;;;;;;9.17;5.53;;;7.70;81.30;;;;;;6211910;28;20253;-84
2023/12/11 06:21:02;;;;;;;7.33;4.80;;;7.70;81.10;;;;;;6229744;28;20760;-82
2023/12/11 06:24:06;;;;;;;9.93;5.17;;;7.70;81.10;;;;;;6215695;28;20818;-82
2023/12/11 06:27:10;;;;;;;9.83;5.10;;;7.60;81.50;;;;;;6239433;28;20234;-85
2023/12/11 06:30:15;;;;;;;7.10;4.83;;;7.50;81.80;;;;;;6234756;28;20235;-85
2023/12/11 06:33:20;;;;;;;6.50;4.43;;;7.50;81.80;;;;;;6223151;28;20830;-86
2023/12/11 06:36:28;;;;;;;10.20;4.90;;;7.50;81.70;;;;;;6237810;28;20249;-84
2023/12/11 06:39:32;;;;;;;6.97;5.20;;;7.50;81.80;;;;;;6243683;28;20227;-84
2023/12/11 06:42:37;;;;;;;7.37;4.87;;;7.50;81.70;;;;;;6225638;28;20246;-85
2023/12/11 06:45:41;;;;;;;6.37;5.07;;;7.40;81.90;;;;;;6222433;28;20246;-86
2023/12/11 06:48:47;;;;;;;7.27;5.20;;;7.40;82.10;;;;;;6218202;28;20247;-85
2023/12/11 06:51:52;;;;;;;6.17;5.13;;;7.40;82.10;;;;;;6215974;28;20374;-84
2023/12/11 06:54:56;;;;;;;8.17;5.10;;;7.40;82.10;;;;;;6224825;28;20246;-79
2023/12/11 06:58:00;;;;;;;13.50;5.23;;;7.40;82.00;;;;;;6213138;28;20242;-81
2023/12/11 07:01:03;;;;;;;12.10;4.97;;;7.50;82.00;;;;;;6230463;28;20246;-83
2023/12/11 07:04:08;;;;;;;7.50;5.63;;;7.40;82.30;;;;;;6241841;28;20245;-84
2023/12/11 07:07:11;;;;;;;12.10;5.47;;;7.40;82.50;;;;;;6228336;28;20242;-84
2023/12/11 07:10:15;;;;;;;6.50;4.93;;;7.40;82.60;;;;;;6216860;28;20246;-84
2023/12/11 07:13:18;;;;;;;15.17;5.90;;;7.40;82.60;;;;;;6215136;28;20239;-86
2023/12/11 07:16:23;;;;;;;7.60;5.10;;;7.40;82.50;;;;;;6215628;28;20243;-82
2023/12/11 07:19:28;;;;;;;6.30;5.70;;;7.50;82.50;;;;;;6223044;28;20919;-84
2023/12/11 07:22:33;;;;;;;9.57;5.20;;;7.50;82.10;;;;;;6222425;28;20714;-84
2023/12/11 07:25:36;;;;;;;10.67;5.30;;;7.50;82.00;;;;;;6218626;28;20305;-78
2023/12/11 07:28:40;;;;;;;10.40;5.30;;;7.60;81.50;;;;;;6237111;28;20347;-85
2023/12/11 07:31:44;;;;;;;10.03;4.70;;;7.60;81.20;;;;;;6233623;28;20768;-86
2023/12/11 07:34:48;;;;;;;8.23;5.57;;;7.70;80.90;;;;;;6230364;28;20368;-86
2023/12/11 07:37:52;;;;;;;10.27;4.67;;;7.80;80.80;;;;;;6222146;28;20333;-84
2023/12/11 07:40:56;;;;;;;6.90;4.53;;;7.80;80.40;;;;;;6217773;28;20829;-82
2023/12/11 07:43:59;;;;;;;9.33;5.00;;;7.80;80.40;;;;;;6213719;28;20628;-83
2023/12/11 07:47:02;;;;;;;9.43;5.37;;;7.80;80.40;;;;;;6239905;28;20264;-82
2023/12/11 07:50:09;;;;;;;7.17;5.10;;;7.70;80.60;;;;;;6220212;28;20755;-82
2023/12/11 07:53:12;;;;;;;10.30;5.87;;;7.80;80.10;;;;;;6207246;28;20714;-83
2023/12/11 07:56:20;;;;;;;9.07;5.23;;;7.80;79.70;;;;;;6245838;28;20235;-82
2023/12/11 07:59:23;;;;;;;5.73;5.13;;;7.80;80.00;;;;;;6220812;28;20235;-85
2023/12/11 08:02:26;;;;;;;9.70;5.10;;;7.80;80.00;;;;;;6213199;28;20812;-87
2023/12/11 08:05:31;;;;;;;8.83;4.50;;;7.80;79.60;;;;;;6220971;28;20246;-87
2023/12/11 08:08:40;;;;;;;11.60;4.90;;;7.80;79.50;;;;;;6214567;28;20855;-83
2023/12/11 08:11:44;;;;;;;6.60;4.47;;;7.80;79.50;;;;;;6226834;28;20242;-86
2023/12/11 08:14:47;;;;;;;5.23;4.67;;;7.80;79.00;;;;;;6218343;28;20251;-83
2023/12/11 08:17:50;;;;;;;7.07;4.30;;;7.80;79.10;;;;;;6218149;28;20249;-84
2023/12/11 08:20:55;;;;;;;8.83;4.40;;;7.80;78.80;;;;;;6228369;28;20242;-84
2023/12/11 08:23:58;;;;;;;10.13;4.57;;;7.90;78.60;;;;;;6222818;28;20301;-85
2023/12/11 08:27:07;;;;;;;9.90;4.70;;;7.90;78.40;;;;;;6229089;28;20238;-83
2023/12/11 08:30:11;;;;;;;6.80;4.13;;;7.80;78.60;;;;;;6247999;28;20294;-84
2023/12/11 08:33:14;;;;;;;9.93;4.97;;;7.80;78.40;;;;;;6247363;28;20238;-81
2023/12/11 08:36:19;;;;;;;10.60;4.80;;;8.00;78.10;;;;;;6245081;28;20517;-84
2023/12/11 08:39:23;;;;;;;6.23;5.03;;;8.00;78.10;;;;;;6243975;28;20346;-86
2023/12/11 08:42:26;;;;;;;9.83;4.60;;;7.90;78.50;;;;;;6245682;28;20320;-86
2023/12/11 08:45:30;;;;;;;7.90;4.40;;;7.90;78.70;;;;;;6244906;28;20251;-83
2023/12/11 08:48:33;;;;;;;8.73;4.87;;;8.00;78.60;;;;;;6242186;28;20239;-81
2023/12/11 08:51:38;;;;;;;13.50;4.73;;;7.80;79.20;;;;;;6247762;28;20261;-83
2023/12/11 08:54:42;;;;;;;8.53;5.30;;;7.80;79.40;;;;;;6246764;28;20633;-84
2023/12/11 08:57:45;;;;;;;13.10;5.30;;;7.80;79.80;;;;;;6265688;28;20225;-86
2023/12/11 09:00:49;;;;;;;8.97;5.23;;;7.90;80.00;;;;;;6250086;28;21036;-85
2023/12/11 09:03:52;;;;;;;10.27;5.00;;;8.00;79.60;;;;;;6253496;28;21962;-83
2023/12/11 09:06:57;;;;;;;6.97;4.63;;;8.00;79.30;;;;;;6252539;28;20238;-79
2023/12/11 09:10:00;;;;;;;7.50;4.83;;;8.00;79.00;;;;;;6288100;28;20242;-81
2023/12/11 09:13:04;;;;;;;6.67;4.63;;;8.10;78.90;;;;;;6281088;28;20898;-83
2023/12/11 09:16:08;;;;;;;8.63;4.70;;;8.10;78.80;;;;;;6256886;28;20320;-84
2023/12/11 09:19:11;;;;;;;9.13;4.40;;;8.20;78.40;;;;;;6235901;28;20679;-84
2023/12/11 09:22:16;;;;;;;12.73;5.33;;;8.20;78.40;;;;;;6236935;28;20244;-83
2023/12/11 09:25:20;;;;;;;10.27;4.80;;;8.00;79.00;;;;;;6233768;28;20382;-81
2023/12/11 09:28:23;;;;;;;6.93;5.00;;;8.00;79.90;;;;;;6221960;28;20247;-83
2023/12/11 09:31:29;;;;;;;11.27;5.33;;;7.90;80.30;;;;;;6221849;28;20250;-84
2023/12/11 09:34:34;;;;;;;11.33;5.57;;;7.80;80.40;;;;;;6218283;28;20243;-82
2023/12/11 09:37:39;;;;;;;11.23;5.17;;;7.80;80.60;;;;;;6224546;28;20235;-86
2023/12/11 09:40:44;;;;;;;8.93;5.20;;;7.80;81.10;;;;;;6233148;28;20305;-82
2023/12/11 09:43:49;;;;;;;11.90;5.10;;;7.80;80.80;;;;;;6225930;28;20254;-84
2023/12/11 09:46:58;;;;;;;6.30;4.93;;;7.80;81.20;;;;;;6239759;28;20376;-84
2023/12/11 09:50:02;;;;;;;10.70;4.63;;;7.80;81.60;;;;;;6222960;28;20318;-81
2023/12/11 09:53:08;;;;;;;7.53;5.00;;;7.80;81.70;;;;;;6227573;28;20333;-84
2023/12/11 09:56:13;;;;;;;9.43;4.43;;;7.80;81.60;;;;;;6229486;28;20239;-82
2023/12/11 09:59:16;;;;;;;10.20;4.60;;;8.00;81.50;;;;;;6236187;28;20290;-81
2023/12/11 10:02:20;;;;;;;8.03;4.53;;;7.80;81.80;;;;;;6233365;28;20245;-84
2023/12/11 10:05:26;;;;;;;7.93;5.60;;;7.80;82.10;;;;;;6214863;28;20249;-85
2023/12/11 10:08:32;;;;;;;10.10;4.90;;;7.90;82.10;;;;;;6227813;28;20243;-82
2023/12/11 10:11:36;;;;;;;10.17;4.60;;;7.80;82.20;;;;;;6226983;28;20239;-82
2023/12/11 10:14:39;;;;;;;9.40;4.70;;;7.80;82.40;;;;;;6250517;28;20324;-81
2023/12/11 10:17:42;;;;;;;9.97;5.30;;;7.80;82.50;;;;;;6245833;28;20316;-79
2023/12/11 10:20:54;;;;;;;13.63;5.07;;;7.90;82.40;;;;;;6236641;28;20290;-83
2023/12/11 10:24:05;;;;;;;7.73;4.70;;;7.90;82.40;;;;;;6245458;28;20219;-82
2023/12/11 10:27:11;;;;;;;9.13;4.23;;;8.00;82.30;;;;;;6244860;28;20247;-80
2023/12/11 10:30:15;;;;;;;8.80;4.83;;;7.90;82.10;;;;;;6256447;28;20248;-79
2023/12/11 10:33:19;;;;;;;8.77;4.70;;;8.00;82.20;;;;;;6249440;28;20885;-81
2023/12/11 10:36:23;;;;;;;6.20;4.00;;;7.90;82.00;;;;;;6233829;28;20314;-84
2023/12/11 10:39:27;;;;;;;7.53;4.23;;;7.90;81.70;;;;;;6252544;28;20323;-83
2023/12/11 10:42:30;;;;;;;10.07;4.30;;;7.90;81.60;;;;;;6240867;28;20254;-84
2023/12/11 10:45:34;;;;;;;8.07;4.17;;;7.80;82.00;;;;;;6226661;28;20257;-86
2023/12/11 10:48:37;;;;;;;6.13;4.20;;;7.80;82.10;;;;;;6223109;28;20235;-83
2023/12/11 10:51:42;;;;;;;7.73;3.97;;;7.80;82.60;;;;;;6235223;28;20874;-84
2023/12/11 10:54:46;;;;;;;8.77;4.77;;;7.80;82.70;;;;;;6252648;28;20250;-82
2023/12/11 10:57:54;;;;;;;11.60;5.77;;;7.80;82.70;;;;;;6228515;28;20740;-77
2023/12/11 11:01:01;;;;;;;7.73;5.10;;;7.80;83.00;;;;;;6228278;28;20235;-84
2023/12/11 11:12:02;;;;;;;5.43;4.23;;;7.80;83.80;;;;;;6252879;28;20294;-81
2023/12/11 11:15:09;;;;;;;6.70;4.67;;;7.70;84.40;;;;;;6261637;28;20245;-84
2023/12/11 11:18:12;;;;;;;7.10;4.60;;;7.80;84.40;;;;;;6248658;28;20235;-82
2023/12/11 11:21:16;;;;;;;5.37;4.40;;;7.80;84.50;;;;;;6246175;28;20240;-84
2023/12/11 11:24:38;;;;;;;11.47;5.40;;;7.80;84.40;;;;;;6248136;28;20235;-83
2023/12/11 11:27:43;;;;;;;6.77;4.70;;;7.90;84.40;;;;;;6252345;28;20242;-84
2023/12/11 11:30:51;;;;;;;8.10;4.67;;;8.00;84.00;;;;;;6252530;28;20357;-82
2023/12/11 11:33:56;;;;;;;8.70;5.27;;;8.00;84.00;;;;;;6256075;28;20318;-82
2023/12/11 11:37:00;;;;;;;12.97;4.87;;;8.10;84.00;;;;;;6257410;28;20230;-85
2023/12/11 11:40:05;;;;;;;14.83;5.70;;;8.20;84.10;;;;;;6261927;28;20238;-81
2023/12/11 11:43:11;;;;;;;9.50;4.67;;;8.30;84.00;;;;;;6258261;28;20321;-80
2023/12/11 11:46:14;;;;;;;9.97;5.17;;;8.30;83.80;;;;;;6245507;28;20242;-82
2023/12/11 11:49:42;;;;;;;6.37;5.47;;;8.50;83.30;;;;;;6255642;28;20242;-87
2023/12/11 11:52:47;;;;;;;8.40;5.70;;;8.60;83.10;;;;;;6251086;28;20319;-80
2023/12/11 11:55:51;;;;;;;9.07;4.67;;;8.60;82.70;;;;;;6251698;28;20242;-84
2023/12/11 11:59:05;;;;;;;9.57;5.10;;;8.60;82.40;;;;;;6258304;28;20296;-83
2023/12/11 12:02:08;;;;;;;6.23;5.07;;;8.50;82.70;;;;;;6262754;28;20317;-82
2023/12/11 12:05:12;;;;;;;5.50;4.20;;;8.50;82.90;;;;;;6235247;28;20293;-83
2023/12/11 12:08:15;;;;;;;11.30;5.83;;;8.50;82.80;;;;;;6214442;28;20242;-83
2023/12/11 12:11:18;;;;;;;6.53;4.47;;;8.50;82.80;;;;;;6234930;28;20602;-80
2023/12/11 12:14:23;;;;;;;5.20;4.37;;;8.60;82.40;;;;;;6238272;28;20241;-85
2023/12/11 12:17:26;;;;;;;13.97;5.37;;;8.60;82.10;;;;;;6241319;28;20230;-80
2023/12/11 12:20:30;;;;;;;7.90;4.57;;;8.60;82.30;;;;;;6255440;28;20246;-83
2023/12/11 12:23:34;;;;;;;8.07;4.53;;;8.70;82.10;;;;;;6209471;28;20334;-84
2023/12/11 12:26:38;;;;;;;12.00;5.67;;;8.70;82.10;;;;;;6247024;28;20238;-87
2023/12/11 12:29:43;;;;;;;10.03;4.33;;;8.60;82.40;;;;;;6241645;28;20253;-83
2023/12/11 12:32:48;;;;;;;6.33;4.47;;;8.60;81.90;;;;;;6244033;28;20817;-84
2023/12/11 12:35:52;;;;;;;11.37;5.37;;;8.60;82.00;;;;;;6239772;28;20242;-80
2023/12/11 12:38:55;;;;;;;8.63;5.17;;;8.80;81.90;;;;;;6224521;28;20306;-84
2023/12/11 12:41:58;;;;;;;5.30;4.80;;;8.60;82.20;;;;;;6241426;28;20230;-84
2023/12/11 12:45:03;;;;;;;8.60;4.37;;;8.80;81.80;;;;;;6225422;28;20358;-81
2023/12/11 12:48:08;;;;;;;8.73;4.90;;;8.80;81.70;;;;;;6239691;28;20269;-81
2023/12/11 12:51:12;;;;;;;9.40;4.40;;;8.80;81.70;;;;;;6242069;28;20249;-84
2023/12/11 12:54:16;;;;;;;7.40;5.27;;;8.80;81.60;;;;;;6237812;28;20258;-84
2023/12/11 12:57:19;;;;;;;7.50;4.47;;;8.80;81.60;;;;;;6250216;28;20242;-83
2023/12/11 13:00:24;;;;;;;14.27;5.53;;;8.90;81.50;;;;;;6234373;28;20235;-83
2023/12/11 13:03:28;;;;;;;11.10;4.70;;;8.90;81.70;;;;;;6243250;28;20730;-87
2023/12/11 13:06:31;;;;;;;12.33;5.50;;;8.90;81.90;;;;;;6233748;28;20302;-79
2023/12/11 13:09:35;;;;;;;8.87;4.60;;;8.90;81.50;;;;;;6241656;28;20809;-84
2023/12/11 13:12:38;;;;;;;10.00;5.03;;;8.90;81.40;;;;;;6225796;28;20227;-83
2023/12/11 13:15:43;;;;;;;8.27;5.00;;;8.90;81.80;;;;;;6228200;28;20232;-84
2023/12/11 13:18:49;;;;;;;7.93;4.30;;;9.00;81.40;;;;;;6263438;28;20268;-83
2023/12/11 13:21:53;;;;;;;9.87;4.53;;;8.90;81.20;;;;;;6249780;28;20231;-82
2023/12/11 13:24:56;;;;;;;14.03;4.90;;;9.00;80.70;;;;;;6227615;28;20313;-83
2023/12/11 13:28:00;;;;;;;11.27;4.47;;;8.90;81.20;;;;;;6226865;28;20231;-84
2023/12/11 13:31:05;;;;;;;8.17;4.40;;;9.00;81.10;;;;;;6235677;28;20250;-82
2023/12/11 13:34:09;;;;;;;7.67;4.97;;;8.90;81.20;;;;;;6234869;28;20771;-82
2023/12/11 13:37:12;;;;;;;9.60;5.37;;;8.90;81.20;;;;;;6227745;28;20239;-80
2023/12/11 13:40:16;;;;;;;8.47;5.20;;;9.00;80.90;;;;;;6225839;28;20242;-81
2023/12/11 13:43:19;;;;;;;10.57;5.30;;;8.90;81.00;;;;;;6222568;28;21523;-85
2023/12/11 13:46:24;;;;;;;11.10;4.47;;;8.90;81.10;;;;;;6231992;28;20743;-84
2023/12/11 13:49:27;;;;;;;7.37;4.43;;;8.90;81.00;;;;;;6224476;28;20283;-82
2023/12/11 13:52:30;;;;;;;10.00;4.63;;;8.80;81.40;;;;;;6222927;28;20234;-82
2023/12/11 13:55:33;;;;;;;8.60;5.07;;;8.70;81.90;;;;;;6222233;28;20239;-80
2023/12/11 13:58:37;;;;;;;7.10;5.10;;;8.70;82.40;;;;;;6239768;28;20238;-82
2023/12/11 14:01:41;;;;;;;6.83;4.60;;;8.60;83.20;;;;;;6226649;28;20320;-83
2023/12/11 14:04:46;;;;;;;10.47;5.00;;;8.60;83.10;;;;;;6224620;28;20293;-84
2023/12/11 14:07:51;;;;;;;6.90;4.27;;;8.60;83.10;;;;;;6215446;28;20250;-82
2023/12/11 14:10:55;;;;;;;8.80;4.87;;;8.60;83.20;;;;;;6225783;28;20414;-81
2023/12/11 14:13:58;;;;;;;5.77;5.10;;;8.60;83.20;;;;;;6233210;28;20235;-82
2023/12/11 14:17:04;;;;;;;8.57;4.97;;;8.60;83.00;;;;;;6226483;28;20317;-81
2023/12/11 14:20:09;;;;;;;9.40;5.07;;;8.60;83.00;;;;;;6229696;28;20231;-83
2023/12/11 14:23:13;;;;;;;12.67;6.03;;;8.50;83.00;;;;;;6228613;28;20243;-81
2023/12/11 14:26:16;;;;;;;9.77;5.17;;;8.50;83.20;;;;;;6232216;28;20849;-82
2023/12/11 14:29:19;;;;;;;6.43;4.80;;;8.50;83.00;;;;;;6229742;28;20239;-80
2023/12/11 14:32:24;;;;;;;10.83;4.40;;;8.60;83.00;;;;;;6221466;28;20254;-82
2023/12/11 14:35:27;;;;;;;7.40;5.00;;;8.50;83.20;;;;;;6231890;28;20238;-82
2023/12/11 14:38:30;;;;;;;7.80;4.50;;;8.40;83.40;;;;;;6218030;28;20746;-83
2023/12/11 14:41:34;;;;;;;6.10;5.20;;;8.40;83.50;;;;;;6237040;28;20265;-81
2023/12/11 14:44:38;;;;;;;5.80;4.30;;;8.50;83.30;;;;;;6235933;28;20837;-81
2023/12/11 14:47:43;;;;;;;10.73;4.87;;;8.30;83.80;;;;;;6218310;28;20697;-82
2023/12/11 14:50:46;;;;;;;4.90;4.43;;;8.30;83.70;;;;;;6231956;28;20231;-83
2023/12/11 14:53:50;;;;;;;7.43;4.47;;;8.30;84.00;;;;;;6227578;28;20251;-82
2023/12/11 14:56:53;;;;;;;6.97;5.20;;;8.30;84.00;;;;;;6224968;28;20234;-84
2023/12/11 14:59:56;;;;;;;5.30;4.70;;;8.30;84.10;;;;;;6227427;28;20234;-84
2023/12/11 15:03:01;;;;;;;8.63;5.10;;;8.30;84.10;;;;;;6235196;28;20338;-78
2023/12/11 15:06:05;;;;;;;6.03;5.57;;;8.10;84.40;;;;;;6226756;28;20297;-82
2023/12/11 15:09:08;;;;;;;9.57;5.53;;;8.10;84.70;;;;;;6223300;28;20239;-80
2023/12/11 15:12:11;;;;;;;6.77;4.93;;;8.10;85.00;;;;;;6235661;28;20301;-82
2023/12/11 15:15:19;;;;;;;5.97;5.40;;;8.10;85.10;;;;;;6212815;28;20770;-83
2023/12/11 15:18:24;;;;;;;6.10;5.20;;;8.10;84.80;;;;;;6223925;28;20769;-83
2023/12/11 15:21:28;;;;;;;5.60;5.10;;;8.00;85.30;;;;;;6221365;28;20324;-81
2023/12/11 15:24:34;;;;;;;5.43;4.90;;;8.00;85.50;;;;;;6223006;28;20239;-79
2023/12/11 15:27:37;;;;;;;5.47;5.03;;;8.00;85.20;;;;;;6224756;28;20250;-84
2023/12/11 15:30:40;;;;;;;5.43;4.97;;;8.00;85.40;;;;;;6244836;28;20238;-83
2023/12/11 15:33:44;;;;;;;6.40;5.80;;;8.00;85.30;;;;;;6223667;28;20231;-82
2023/12/11 15:36:48;;;;;;;5.70;5.07;;;8.00;85.70;;;;;;6226443;28;20231;-84
2023/12/11 15:39:51;;;;;;;6.03;5.57;;;8.00;85.60;;;;;;6224936;28;20235;-83
2023/12/11 15:42:56;;;;;;;5.37;5.03;;;8.00;85.70;;;;;;6225928;28;20337;-80
2023/12/11 15:45:59;;;;;;;5.27;4.87;;;8.00;85.60;;;;;;6219489;28;20243;-85
2023/12/11 15:49:04;;;;;;;7.10;6.43;;;8.00;85.60;;;;;;6220905;28;20238;-84
2023/12/11 15:52:09;;;;;;;7.87;6.57;;;8.00;85.70;;;;;;6221102;28;20246;-86
2023/12/11 15:55:12;;;;;;;7.17;6.50;;;8.00;85.90;;;;;;6218518;28;20250;-86
2023/12/11 15:58:16;;;;;;;5.30;5.00;;;8.10;85.70;;;;;;6221030;28;20239;-83
2023/12/11 16:01:21;;;;;;;8.77;5.50;;;8.10;85.90;;;;;;6209676;28;20990;-81
2023/12/11 16:04:26;;;;;;;6.90;6.30;;;8.10;86.20;;;;;;6218642;28;20234;-82
2023/12/11 16:07:30;;;;;;;6.63;6.00;;;8.10;86.10;;;;;;6210171;28;20246;-83
2023/12/11 16:10:33;;;;;;;6.60;6.00;;;8.10;86.20;;;;;;6219783;28;21049;-79
2023/12/11 16:13:37;;;;;;;7.40;5.87;;;8.00;86.40;;;;;;6211879;28;20249;-82